createdAt,value
2023-02-18T00:06:19.169Z,100451.25
2023-02-18T00:16:22.074Z,100435.31
2023-02-18T00:26:24.322Z,100411.78
2023-02-18T00:36:26.843Z,100412.63
2023-02-18T00:46:29.404Z,100410.00
2023-02-18T00:56:31.324Z,100423.69
2023-02-18T01:06:32.982Z,100396.91
2023-02-18T01:16:36.109Z,100381.03
2023-02-18T01:26:37.861Z,100373.78
2023-02-18T01:36:39.598Z,100366.66
2023-02-18T01:46:43.079Z,100355.41
2023-02-18T01:56:59.998Z,100344.88
2023-02-18T02:07:01.651Z,100345.59
2023-02-18T02:17:16.094Z,100315.38
2023-02-18T02:27:51.250Z,100323.72
2023-02-18T02:38:40.391Z,100333.34
2023-02-18T02:49:08.630Z,100333.28
2023-02-18T02:59:18.048Z,100343.66
2023-02-18T03:10:05.169Z,100336.88
2023-02-18T03:20:35.264Z,100358.59
2023-02-18T03:30:46.532Z,100359.47
2023-02-18T03:40:49.937Z,100351.09
2023-02-18T03:50:52.208Z,100374.59
2023-02-18T04:00:55.013Z,100366.75
2023-02-18T04:10:57.620Z,100374.50
2023-02-18T04:20:59.744Z,100384.16
2023-02-18T04:31:02.753Z,100388.47
2023-02-18T04:41:04.934Z,100389.63
2023-02-18T04:51:12.567Z,100420.63
2023-02-18T05:01:14.225Z,100435.63
2023-02-18T05:11:16.101Z,100444.75
2023-02-18T05:21:17.978Z,100453.78
2023-02-18T05:31:19.731Z,100456.53
2023-02-18T05:41:21.518Z,100456.81
2023-02-18T05:51:23.295Z,100487.06
2023-02-18T06:01:24.963Z,100499.13
2023-02-18T06:11:27.701Z,100511.22
2023-02-18T06:21:53.745Z,100528.50
2023-02-18T06:31:55.974Z,100519.09
2023-02-18T06:42:00.489Z,100534.59
2023-02-18T06:52:03.161Z,100526.75
2023-02-18T07:02:07.073Z,100530.19
2023-02-18T07:12:09.834Z,100543.03
2023-02-18T07:22:12.165Z,100551.72
2023-02-18T07:32:18.153Z,100560.25
2023-02-18T07:42:23.061Z,100543.59
2023-02-18T07:52:24.826Z,100518.47
2023-02-18T08:02:27.042Z,100537.19
2023-02-18T08:12:30.877Z,100537.97
2023-02-18T08:22:38.478Z,100549.00
2023-02-18T08:32:41.377Z,100553.22
2023-02-18T08:42:44.363Z,100550.56
2023-02-18T08:52:48.012Z,100550.50
2023-02-18T09:02:50.901Z,100562.22
2023-02-18T09:12:52.556Z,100546.31
2023-02-18T09:22:54.260Z,100541.72
2023-02-18T09:32:57.101Z,100522.66
2023-02-18T09:43:01.445Z,100526.03
2023-02-18T09:53:04.169Z,100535.75
2023-02-18T10:03:29.500Z,100518.41
2023-02-18T10:13:38.469Z,100545.56
2023-02-18T10:23:44.851Z,100524.28
2023-02-18T10:33:59.997Z,100526.09
2023-02-18T10:44:20.732Z,100524.38
2023-02-18T10:55:09.589Z,100496.34
2023-02-18T11:05:25.950Z,100507.53
2023-02-18T11:15:29.000Z,100485.59
2023-02-18T11:25:39.542Z,100468.81
2023-02-18T11:35:52.873Z,100447.56
2023-02-18T11:46:20.467Z,100444.97
2023-02-18T11:56:34.489Z,100430.59
2023-02-18T12:07:05.818Z,100383.78
2023-02-18T12:17:55.080Z,100381.88
2023-02-18T12:28:18.110Z,100362.13
2023-02-18T12:38:53.995Z,100342.75
2023-02-18T12:49:24.467Z,100323.44
2023-02-18T12:59:57.696Z,100331.47
2023-02-18T13:10:19.116Z,100307.97
2023-02-18T13:20:26.893Z,100285.44
2023-02-18T13:31:01.875Z,100232.03
2023-02-18T13:41:04.619Z,100250.16
2023-02-18T13:51:17.647Z,100247.81
2023-02-18T14:01:46.471Z,100243.50
2023-02-18T14:12:17.421Z,100215.81
2023-02-18T14:22:31.850Z,100212.91
2023-02-18T14:32:34.658Z,100190.91
2023-02-18T14:42:48.653Z,100184.53
2023-02-18T14:52:57.481Z,100172.81
2023-02-18T15:03:02.016Z,100153.56
2023-02-18T15:13:17.760Z,100158.63
2023-02-18T15:23:22.794Z,100147.16
2023-02-18T15:33:27.819Z,100147.09
2023-02-18T15:43:32.739Z,100129.97
2023-02-18T15:53:41.777Z,100117.31
2023-02-18T16:03:48.260Z,100136.88
2023-02-18T16:13:50.593Z,100133.91
2023-02-18T16:24:00.799Z,100128.13
2023-02-18T16:34:10.254Z,100129.19
2023-02-18T16:44:14.964Z,100101.91
2023-02-18T16:54:18.391Z,100106.34
2023-02-18T17:04:21.023Z,100134.06
2023-02-18T17:14:23.935Z,100132.47
2023-02-18T17:24:26.892Z,100111.13
2023-02-18T17:34:36.257Z,100130.94
2023-02-18T17:44:42.067Z,100121.53
2023-02-18T17:54:45.640Z,100124.16
2023-02-18T18:04:48.323Z,100092.50
2023-02-18T18:14:50.549Z,100115.69
2023-02-18T18:25:22.559Z,100124.22
2023-02-18T18:35:36.598Z,100125.94
2023-02-18T18:45:40.791Z,100121.66
2023-02-18T18:55:46.915Z,100113.94
2023-02-18T19:05:50.750Z,100119.16
2023-02-18T19:16:18.293Z,100146.66
2023-02-18T19:26:22.827Z,100152.72
2023-02-18T19:36:26.611Z,100167.28
2023-02-18T19:46:33.081Z,100172.34
2023-02-18T19:56:43.790Z,100187.78
2023-02-18T20:06:54.048Z,100176.59
2023-02-18T20:17:03.588Z,100183.34
2023-02-18T20:27:27.249Z,100195.41
2023-02-18T20:37:31.340Z,100180.72
2023-02-18T20:47:49.480Z,100182.47
2023-02-18T20:57:54.181Z,100205.50
2023-02-18T21:07:58.135Z,100212.41
2023-02-18T21:18:01.282Z,100212.50
2023-02-18T21:28:07.680Z,100172.31
2023-02-18T21:38:12.069Z,100204.78
2023-02-18T21:48:35.492Z,100214.94
2023-02-18T21:58:45.909Z,100224.06
2023-02-18T22:08:49.242Z,100217.19
2023-02-18T22:18:51.737Z,100238.84
2023-02-18T22:28:55.980Z,100241.53
2023-02-18T22:39:00.604Z,100240.88
2023-02-18T22:49:06.182Z,100247.75
2023-02-18T22:59:08.259Z,100264.19
2023-02-18T23:09:15.323Z,100268.31
2023-02-18T23:19:23.871Z,100263.34
2023-02-18T23:29:26.806Z,100232.56
2023-02-18T23:39:29.721Z,100241.50
2023-02-18T23:49:31.673Z,100251.88
2023-02-18T23:59:33.374Z,100255.41
